Home > Products > Valid Products > MTR

000
SAUS42 KCHS 231357
MTRNBC
METAR KNBC 231356Z VRB06KT 10SM FEW020 21/16 A2989 RMK AO2 SLP121
T02110161





000
SAUS42 KCHS 231257
MTRNBC
METAR KNBC 231256Z 34007KT 10SM FEW012 19/16 A2987 RMK AO2 SLP114
T01940161





000
SAUS42 KCHS 231157
MTRNBC
METAR KNBC 231156Z 34005KT 6SM BR FEW003 18/16 A2986 RMK AO2 SLP112
70002 T01780156 10183 20172 53022





000
SAUS42 KCHS 231057
MTRNBC
METAR KNBC 231056Z 34008KT 5SM BR FEW003 17/16 A2983 RMK AO2 SLP102
T01720156





000
SAUS42 KCHS 230957
MTRNBC
METAR KNBC 230956Z AUTO 33006KT 8SM CLR 17/16 A2981 RMK AO2 SLP094
T01720156 $





000
SAUS42 KCHS 230858
MTRNBC
METAR KNBC 230856Z AUTO 32007KT 8SM CLR 17/16 A2980 RMK AO2 SLP090
T01720156 55002 $





000
SAUS42 KCHS 230757
MTRNBC
METAR KNBC 230756Z AUTO 32008KT 9SM FEW009 18/16 A2979 RMK AO2
SLP088 T01780161 $





000
SAUS42 KCHS 230657
MTRNBC
METAR KNBC 230656Z AUTO 31009KT 10SM CLR 18/16 A2979 RMK AO2 SLP090
T01780156 $





000
SAUS42 KCHS 230557
MTRNBC
METAR KNBC 230556Z AUTO 31008KT 10SM CLR 18/16 A2980 RMK AO2 SLP092
60002 T01830156 10233 20183 56010 $





000
SAUS42 KCHS 230457
MTRNBC
METAR KNBC 230456Z AUTO 32008KT 10SM CLR 18/16 A2981 RMK AO2 SLP094
T01830156 402890117 $





000
SAUS42 KCHS 230357
MTRNBC
METAR KNBC 230356Z AUTO 32007KT 10SM OVC090 19/17 A2982 RMK AO2
SLP098 T01890167 $





000
SAUS42 KCHS 230257
MTRNBC
METAR KNBC 230256Z 32008KT 9SM SCT110 19/17 A2983 RMK AO2
RAE01B21E52 SLP102 P0002 60002 T01890167 50016 $





000
SAUS42 KCHS 230157
MTRNBC
METAR KNBC 230156Z 31010KT 10SM -RA FEW060 OVC110 20/17 A2984 RMK
AO2 RAB39 SLP104 P0000 T02000167 $





000
SAUS42 KCHS 230057
MTRNBC
METAR KNBC 230056Z 33004KT 10SM BKN090 OVC120 22/15 A2981 RMK AO2
SLP094 T02170150 $





000
SAUS42 KCHS 222357
MTRNBC
METAR KNBC 222356Z 01008KT 10SM FEW060 SCT075 OVC110 23/15 A2979 RMK
AO2 WSHFT 2329 RAB34E45 SLP087 P0000 60000 T02330150 10289 20233
53006 $





000
SAUS42 KCHS 222350
MTRNBC
SPECI KNBC 222349Z 01010G17KT 10SM SCT065 BKN075 OVC110 23/14 A2978
RMK AO2 WSHFT 2329 RAB34E45 P0000 T02330144 $





000
SAUS42 KCHS 222257
MTRNBC
METAR KNBC 222256Z 30007KT 10SM BKN085 26/12 A2976 RMK AO2 SLP078
T02610122 $





000
SAUS42 KCHS 222157
MTRNBC
METAR KNBC 222156Z 32010KT 10SM SCT075 BKN200 27/12 A2976 RMK AO2
SLP078 T02720117 $





000
SAUS42 KCHS 222057
MTRNBC
METAR KNBC 222056Z 31007KT 270V330 10SM BKN075 BKN200 28/12 A2977
RMK AO2 SLP081 T02780122 56018 $





000
SAUS42 KCHS 221957
MTRNBC
METAR KNBC 221956Z 32010KT 10SM BKN070 BKN200 28/12 A2978 RMK AO2
SLP085 T02830117 $





000
SAUS42 KCHS 221857
MTRNBC
METAR KNBC 221856Z 31011KT 10SM SCT065 28/12 A2981 RMK AO2 SLP093
T02830122 $





000
SAUS42 KCHS 221757
MTRNBC
METAR KNBC 221756Z AUTO 30008G16KT 10SM SCT040 28/12 A2982 RMK AO2
SLP099 T02780117 10278 20156 58021 PWINO $





000
SAUS42 KCHS 221657
MTRNBC
METAR KNBC 221656Z AUTO 34007KT 280V020 10SM CLR 27/12 A2985 RMK AO2
SLP107 T02720122 PWINO $





000
SAUS42 KCHS 221557
MTRNBC
METAR KNBC 221556Z 29009KT 10SM FEW040 FEW250 26/13 A2987 RMK AO2
SLP115 T02560128





000
SAUS42 KCHS 221458
MTRNBC
METAR KNBC 221456Z 29010KT 10SM FEW040 FEW250 24/13 A2989 RMK AO2
SLP121 T02390133 58009





000
SAUS42 KCHS 221357
MTRNBC
METAR KNBC 221356Z 29009KT 10SM FEW040 SCT250 22/13 A2990 RMK AO2
SLP124 T02170133





000
SAUS42 KCHS 221257
MTRNBC
METAR KNBC 221256Z 25006KT 10SM FEW056 SCT250 18/14 A2991 RMK AO2
SLP127 T01830139





000
SAUS42 KCHS 221157
MTRNBC
METAR KNBC 221156Z 26007KT 10SM FEW056 16/13 A2991 RMK AO2 SLP130
T01560133 10156 20117 52004





000
SAUS42 KCHS 221057
MTRNBC
METAR KNBC 221056Z 28007KT 10SM FEW250 14/12 A2991 RMK AO2 SLP129
T01390117





000
SAUS42 KCHS 220957
MTRNBC
METAR KNBC 220956Z AUTO 28004KT 10SM CLR 13/11 A2990 RMK AO2 SLP127
T01280111





000
SAUS42 KCHS 220857
MTRNBC
METAR KNBC 220856Z AUTO 25003KT 10SM CLR 13/11 A2990 RMK AO2 SLP126
T01330111 56011





000
SAUS42 KCHS 220757
MTRNBC
METAR KNBC 220756Z AUTO 26003KT 10SM CLR 14/12 A2991 RMK AO2 SLP128
T01390117





000
SAUS42 KCHS 220657
MTRNBC
METAR KNBC 220656Z AUTO 00000KT 10SM CLR 12/11 A2991 RMK AO2 SLP129
T01220106





000
SAUS42 KCHS 220557
MTRNBC
METAR KNBC 220556Z AUTO 00000KT 10SM CLR 13/10 A2994 RMK AO2 SLP137
T01280100 10206 20128 58016





000
SAUS42 KCHS 220457
MTRNBC
METAR KNBC 220456Z AUTO 00000KT 10SM CLR 13/11 A2995 RMK AO2 SLP144
T01330106 402560133





000
SAUS42 KCHS 220357
MTRNBC
METAR KNBC 220356Z AUTO 00000KT 10SM CLR 14/11 A2997 RMK AO2 SLP150
T01390111





000
SAUS42 KCHS 220257
MTRNBC
METAR KNBC 220256Z 00000KT 10SM CLR 14/09 A2998 RMK AO2 SLP153
T01440094 50002





000
SAUS42 KCHS 220157
MTRNBC
METAR KNBC 220156Z 00000KT 10SM CLR 16/10 A2999 RMK AO2 SLP154
T01560100





000
SAUS42 KCHS 220057
MTRNBC
METAR KNBC 220056Z 00000KT 10SM FEW250 17/09 A2998 RMK AO2 SLP153
T01720094





000
SAUS42 KCHS 212357
MTRNBC
METAR KNBC 212356Z 00000KT 10SM FEW250 21/08 A2998 RMK AO2 SLP151
T02110083 10256 20211 53000





000
SAUS42 KCHS 212257
MTRNBC
METAR KNBC 212256Z 35006KT 10SM FEW250 24/06 A2997 RMK AO2 SLP149
T02440056





000
SAUS42 KCHS 212157
MTRNBC
METAR KNBC 212156Z 02005KT 10SM FEW250 26/06 A2998 RMK AO2 SLP151
T02560061





000
SAUS42 KCHS 212057
MTRNBC
METAR KNBC 212056Z VRB03KT 10SM FEW250 25/08 A2998 RMK AO2 SLP151
T02500078 56023





000
SAUS42 KCHS 211957
MTRNBC
METAR KNBC 211956Z VRB03KT 10SM FEW250 25/09 A2999 RMK AO2 SLP157
T02500089





000
SAUS42 KCHS 211857
MTRNBC
METAR KNBC 211856Z VRB04KT 10SM SCT250 24/09 A3002 RMK AO2 SLP166
T02440089





000
SAUS42 KCHS 211758
MTRNBC
METAR KNBC 211756Z COR 03010KT 10SM SCT250 24/09 A3004 RMK AO2
SLP174 T02390094 10239 20144 58021





000
SAUS42 KCHS 211657
MTRNBC
METAR KNBC 211656Z 01012KT 7SM FEW250 23/11 A3007 RMK AO2 SLP182
T02280106





000
SAUS42 KCHS 211557
MTRNBC
METAR KNBC 211556Z 06009KT 10SM FEW250 22/11 A3009 RMK AO2 SLP190
T02170106





000
SAUS42 KCHS 211458
MTRNBC
METAR KNBC 211456Z 04009KT 10SM FEW250 20/11 A3011 RMK AO2 SLP195
T02000106 50001





000
SAUS42 KCHS 211357
MTRNBC
METAR KNBC 211356Z 06010KT 10SM FEW250 18/10 A3011 RMK AO2 SLP196
T01830100





000
SAUS42 KCHS 211257
MTRNBC
METAR KNBC 211256Z 03009KT 10SM FEW200 16/09 A3012 RMK AO2 SLP199
T01610089





000
SAUS42 KCHS 211157
MTRNBC
METAR KNBC 211156Z 03008KT 10SM CLR 14/09 A3010 RMK AO2 SLP194 70006
T01440089 10167 20133 53011





000
SAUS42 KCHS 211057
MTRNBC
METAR KNBC 211056Z 05005KT 10SM CLR 13/09 A3008 RMK AO2 SLP187
T01330089





000
SAUS42 KCHS 210957
MTRNBC
METAR KNBC 210956Z AUTO 06006KT 10SM CLR 14/09 A3007 RMK AO2 SLP182
T01390089





000
SAUS42 KCHS 210857
MTRNBC
METAR KNBC 210856Z AUTO 06009KT 10SM CLR 14/09 A3007 RMK AO2 SLP183
T01440089 56006





000
SAUS42 KCHS 210757
MTRNBC
METAR KNBC 210756Z AUTO 06009KT 10SM CLR 16/09 A3008 RMK AO2 SLP186
T01560089





000
SAUS42 KCHS 210657
MTRNBC
METAR KNBC 210656Z AUTO 07007KT 10SM CLR 16/10 A3007 RMK AO2 SLP184
T01560100





000
SAUS42 KCHS 210557
MTRNBC
METAR KNBC 210556Z AUTO 07010KT 10SM OVC045 17/10 A3009 RMK AO2
SLP189 T01670100 10183 20167 58009





000
SAUS42 KCHS 210457
MTRNBC
METAR KNBC 210456Z AUTO 07011KT 10SM OVC045 17/10 A3010 RMK AO2
SLP193 T01720100 402110117





000
SAUS42 KCHS 210357
MTRNBC
METAR KNBC 210356Z AUTO 06011KT 10SM OVC044 17/09 A3011 RMK AO2
SLP195 T01720089





000
SAUS42 KCHS 210257
MTRNBC
METAR KNBC 210256Z AUTO 05012KT 10SM OVC050 17/09 A3011 RMK AO2
SLP198 T01720089 50001





000
SAUS42 KCHS 210157
MTRNBC
METAR KNBC 210156Z AUTO 03006KT 10SM FEW044 OVC060 18/10 A3012 RMK
AO2 SLP201 T01780100





000
SAUS42 KCHS 210057
MTRNBC
METAR KNBC 210056Z AUTO 04007KT 10SM OVC038 18/10 A3012 RMK AO2
SLP199 T01780100





000
SAUS42 KCHS 202357
MTRNBC
METAR KNBC 202356Z AUTO 04011G17KT 10SM OVC038 18/10 A3011 RMK AO2
SLP196 T01830100 10211 20183 53008





000
SAUS42 KCHS 202257
MTRNBC
METAR KNBC 202256Z AUTO 05010KT 10SM BKN040 OVC055 19/11 A3009 RMK
AO2 SLP191 T01890106





000
SAUS42 KCHS 202157
MTRNBC
METAR KNBC 202156Z AUTO 07013G20KT 10SM BKN047 OVC055 19/11 A3010
RMK AO2 SLP192 T01890106





000
NZUS52 KCHS 202106
MTRCHL

METAR KCHL 202056Z 01019KT 17/  RMK PRECIP COUNTER 044.40 RH100








000
SAUS42 KCHS 202057
MTRNBC
METAR KNBC 202056Z AUTO 06014KT 10SM OVC041 20/11 A3009 RMK AO2
SLP189 T02000106 55005





000
NZUS52 KCHS 202006
MTRCHL

METAR KCHL 201950Z COR 17/  RMK PRECIP COUNTER 044.40 RH100








000
SAUS42 KCHS 201957
MTRNBC
METAR KNBC 201956Z AUTO 06017G23KT 10SM SCT039 BKN055 21/11 A3007
RMK AO2 SLP184 T02110111





000
NZUS52 KCHS 201906
MTRCHL

METAR KCHL 201855Z COR 18/  RMK PRECIP COUNTER 044.40 RH100








000
SAUS42 KCHS 201857
MTRNBC
METAR KNBC 201856Z AUTO 05012KT 10SM BKN037 OVC085 20/11 A3009 RMK
AO2 SLP188 T02000111





000
SAUS42 KCHS 201757
MTRNBC
METAR KNBC 201756Z AUTO 05016G22KT 10SM BKN033 19/12 A3010 RMK AO2
SLP194 60006 T01940117 10200 20122 58010





000
SAUS42 KCHS 201657
MTRNBC
METAR KNBC 201656Z AUTO 03010KT 10SM SCT027 BKN035 OVC075 17/11
A3012 RMK AO2 SLP198 T01720106





000
SAUS42 KCHS 201644
MTRNBC
SPECI KNBC 201643Z AUTO 04011KT 10SM BKN026 OVC035 16/10 A3012 RMK
AO2 T01610100





000
SAUS42 KCHS 201557
MTRNBC
METAR KNBC 201556Z AUTO 05012KT 10SM FEW025 SCT043 OVC050 15/12
A3013 RMK AO2 RAE38 SLP204 P0003 T01500117





000
SAUS42 KCHS 201555
MTRNBC
SPECI KNBC 201554Z AUTO 05013KT 10SM SCT023 SCT043 OVC050 14/12
A3013 RMK AO2 RAE38 P0003





000
SAUS42 KCHS 201531
MTRNBC
SPECI KNBC 201531Z AUTO 02008KT 4SM -RA BR FEW008 SCT013 OVC021
13/12 A3014 RMK AO2 P0003 T01330117





000
SAUS42 KCHS 201525
MTRNBC
SPECI KNBC 201524Z AUTO 02008KT 2 1/2SM -RA BR SCT008 SCT013 OVC019
13/11 A3015 RMK AO2 P0003 T01280111





000
SAUS42 KCHS 201509
MTRNBC
SPECI KNBC 201507Z AUTO 01008KT 2 1/2SM -RA BR OVC008 13/11 A3015
RMK AO2 CIG 004V011 P0001 T01280111





000
SAUS42 KCHS 201458
MTRNBC
METAR KNBC 201456Z AUTO 01008KT 1 3/4SM RA BR OVC010 13/11 A3015 RMK
AO2 RAB24 CIG 006V013 SLP209 P0003 60003 T01280111 53020





    US Dept of Commerce
    National Oceanic and Atmospheric Administration
    National Weather Service
    1325 East West Highway
    Silver Spring, MD 20910
    Page Author: NWS Internet Services Team
Disclaimer
Information Quality
Credits
Glossary
Privacy Policy
Freedom of Information Act (FOIA)
About Us
Career Opportunities